Time;durP1;ratioP1;P1;durP2;ratioP2;P2;SDS_P1;SDS_P2;PMS_P1;PMS_P2;Temp;Humidity;BMP_temperature;BMP_pressure;BME280_temperature;BME280_humidity;BME280_pressure;Samples;Min_cycle;Max_cycle;Signal;HPM_P1;HPM_P2
2021/11/06 00:01:02;;;;;;;9.97;5.83;;;;;;;;;;5039016;28;20541;-76
2021/11/06 00:03:29;;;;;;;23.10;8.23;;;;;;;;;;5041222;28;20403;-76
2021/11/06 00:05:55;;;;;;;19.70;7.83;;;;;;;;;;5020893;28;20788;-76
2021/11/06 00:08:21;;;;;;;22.27;8.00;;;;;;;;;;5034040;28;20415;-76
2021/11/06 00:10:47;;;;;;;21.40;6.73;;;;;;;;;;5027152;28;20578;-76
2021/11/06 00:13:13;;;;;;;20.87;6.97;;;;;;;;;;5026543;28;20786;-76
2021/11/06 00:15:39;;;;;;;12.57;6.60;;;;;;;;;;5032593;28;21021;-76
2021/11/06 00:18:05;;;;;;;17.90;6.53;;;;;;;;;;5032506;28;20861;-76
2021/11/06 00:20:32;;;;;;;23.27;7.20;;;;;;;;;;5033228;28;20557;-76
2021/11/06 00:22:58;;;;;;;12.87;6.70;;;;;;;;;;5028130;28;20438;-76
2021/11/06 00:25:24;;;;;;;25.33;8.23;;;;;;;;;;5019240;28;20419;-76
2021/11/06 00:27:51;;;;;;;15.27;6.33;;;;;;;;;;5025967;28;20426;-76
2021/11/06 00:30:17;;;;;;;14.20;6.70;;;;;;;;;;5038854;28;20513;-76
2021/11/06 00:32:44;;;;;;;22.10;7.77;;;;;;;;;;5036859;28;20946;-75
2021/11/06 00:35:11;;;;;;;19.73;6.53;;;7.70;1.00;;;;;;5014453;28;20913;-76
2021/11/06 00:37:38;;;;;;;17.83;7.67;;;;;;;;;;5030566;28;20442;-76
2021/11/06 00:40:09;;;;;;;18.33;7.70;;;;;;;;;;5033355;28;20438;-76
2021/11/06 00:42:39;;;;;;;31.03;7.43;;;;;;;;;;5032282;28;20484;-76
2021/11/06 00:45:07;;;;;;;35.17;9.07;;;7.60;1.00;;;;;;5021491;28;20411;-76
2021/11/06 00:47:33;;;;;;;29.43;7.80;;;;;;;;;;5032254;28;20909;-76
2021/11/06 00:49:59;;;;;;;18.27;6.93;;;;;;;;;;5034384;28;20411;-76
2021/11/06 00:52:25;;;;;;;26.00;7.40;;;;;;;;;;5023304;28;20420;-76
2021/11/06 00:54:51;;;;;;;15.53;6.47;;;;;;;;;;5033706;28;20870;-76
2021/11/06 00:57:17;;;;;;;20.53;7.27;;;;;;;;;;5031443;28;20415;-76
2021/11/06 00:59:43;;;;;;;22.20;7.57;;;;;;;;;;5033415;28;20762;-76
2021/11/06 01:02:09;;;;;;;18.70;6.93;;;;;;;;;;5033211;28;20520;-76
2021/11/06 01:04:37;;;;;;;16.73;6.70;;;;;;;;;;5033325;28;20451;-76
2021/11/06 01:07:08;;;;;;;12.17;6.13;;;;;;;;;;5045290;28;20406;-76
2021/11/06 01:09:34;;;;;;;13.50;7.03;;;;;;;;;;5029267;28;20421;-77
2021/11/06 01:12:02;;;;;;;16.03;6.73;;;;;;;;;;5033094;28;20912;-76
2021/11/06 01:14:38;;;;;;;19.87;6.93;;;;;;;;;;5022262;28;20773;-76
2021/11/06 01:17:20;;;;;;;16.80;7.73;;;;;;;;;;5036050;28;20418;-76
2021/11/06 01:19:46;;;;;;;15.13;7.10;;;;;;;;;;5039256;28;20423;-77
2021/11/06 01:22:12;;;;;;;15.53;6.80;;;;;;;;;;5033090;28;20545;-76
2021/11/06 01:24:38;;;;;;;19.50;7.83;;;;;;;;;;5037544;28;20455;-75
2021/11/06 01:27:05;;;;;;;19.03;8.33;;;;;;;;;;5030175;28;20422;-75
2021/11/06 01:29:31;;;;;;;18.17;7.33;;;;;;;;;;5049803;28;20405;-75
2021/11/06 01:31:57;;;;;;;13.30;7.47;;;;;;;;;;5033868;28;20522;-75
2021/11/06 01:34:23;;;;;;;32.00;7.83;;;;;;;;;;5036785;28;20419;-75
2021/11/06 01:36:49;;;;;;;17.33;7.97;;;;;;;;;;5036920;28;20426;-75
2021/11/06 01:39:18;;;;;;;15.73;7.53;;;;;;;;;;5036563;28;20824;-75
2021/11/06 01:41:44;;;;;;;18.43;7.40;;;;;;;;;;5036562;28;20837;-76
2021/11/06 01:44:14;;;;;;;16.70;7.13;;;;;;;;;;5036347;28;20517;-75
2021/11/06 01:46:40;;;;;;;17.80;6.50;;;;;;;;;;5036607;28;20945;-76
2021/11/06 01:49:08;;;;;;;20.80;7.63;;;;;;;;;;5023342;28;20488;-75
2021/11/06 01:51:34;;;;;;;20.00;7.67;;;;;;;;;;5036300;28;20434;-76
2021/11/06 01:54:01;;;;;;;26.27;8.00;;;;;;;;;;5035196;28;20433;-75
2021/11/06 01:56:33;;;;;;;16.23;7.70;;;;;;;;;;5036883;28;20889;-76
2021/11/06 01:59:00;;;;;;;23.97;9.57;;;7.70;1.00;;;;;;5048599;28;20483;-76
2021/11/06 02:01:32;;;;;;;21.93;7.50;;;;;;;;;;5035001;28;20470;-76
2021/11/06 02:03:58;;;;;;;52.27;9.07;;;;;;;;;;5046115;28;20480;-76
2021/11/06 02:06:24;;;;;;;14.77;7.50;;;;;;;;;;5016055;28;20420;-77
2021/11/06 02:08:50;;;;;;;28.23;7.90;;;;;;;;;;5028420;28;20793;-77
2021/11/06 02:11:17;;;;;;;20.53;8.60;;;;;;;;;;5035809;28;20958;-76
2021/11/06 02:13:45;;;;;;;15.53;7.40;;;;;;;;;;5033244;28;20408;-76
2021/11/06 02:16:11;;;;;;;14.53;7.57;;;;;;;;;;5016761;28;20388;-77
2021/11/06 02:18:37;;;;;;;27.13;8.93;;;;;;;;;;5020152;28;20423;-76
2021/11/06 02:21:06;;;;;;;12.30;6.70;;;7.60;1.00;;;;;;5038434;28;20852;-76
2021/11/06 02:23:34;;;;;;;16.90;7.10;;;7.60;1.00;;;;;;5048988;28;20434;-76
2021/11/06 02:26:01;;;;;;;34.70;7.97;;;;;;;;;;5035946;28;20415;-76
2021/11/06 02:28:27;;;;;;;14.07;7.97;;;;;;;;;;5036067;28;20399;-76
2021/11/06 02:30:53;;;;;;;18.53;7.20;;;;;;;;;;5030978;28;20458;-76
2021/11/06 02:33:20;;;;;;;18.80;7.40;;;;;;;;;;5022441;28;20443;-77
2021/11/06 02:35:50;;;;;;;21.20;8.70;;;;;;;;;;5038495;28;20399;-77
2021/11/06 02:38:16;;;;;;;15.70;8.27;;;;;;;;;;5042182;28;20510;-77
2021/11/06 02:40:42;;;;;;;20.57;7.43;;;;;;;;;;5045143;28;20486;-76
2021/11/06 02:43:12;;;;;;;25.40;7.87;;;;;;;;;;5032656;28;20442;-76
2021/11/06 02:45:38;;;;;;;18.77;8.07;;;;;;;;;;5048050;28;20459;-76
2021/11/06 02:48:05;;;;;;;24.30;7.73;;;7.40;1.00;;;;;;5025379;28;20471;-76
2021/11/06 02:50:32;;;;;;;25.70;7.23;;;;;;;;;;5022908;28;20894;-76
2021/11/06 02:53:09;;;;;;;23.27;7.00;;;;;;;;;;5026180;28;20474;-76
2021/11/06 02:55:35;;;;;;;24.10;7.80;;;;;;;;;;5045392;28;20498;-76
2021/11/06 02:58:01;;;;;;;14.37;6.77;;;;;;;;;;5038060;28;20436;-76
2021/11/06 03:00:33;;;;;;;18.00;7.60;;;;;;;;;;5028702;28;20447;-76
2021/11/06 03:02:59;;;;;;;22.10;8.30;;;;;;;;;;5034444;28;20914;-77
2021/11/06 03:05:26;;;;;;;16.53;7.47;;;;;;;;;;5035318;28;20492;-76
2021/11/06 03:07:53;;;;;;;19.20;7.40;;;;;;;;;;5035094;28;20419;-76
2021/11/06 03:10:19;;;;;;;27.60;8.67;;;;;;;;;;5035128;28;20419;-76
2021/11/06 03:12:50;;;;;;;24.20;8.60;;;;;;;;;;5025249;28;20420;-76
2021/11/06 03:15:22;;;;;;;18.10;7.47;;;;;;;;;;5034100;28;20513;-76
2021/11/06 03:17:48;;;;;;;23.33;7.43;;;;;;;;;;5034436;28;20416;-76
2021/11/06 03:20:15;;;;;;;21.23;7.70;;;;;;;;;;5015151;28;20444;-76
2021/11/06 03:22:42;;;;;;;18.93;8.20;;;6.70;1.00;;;;;;5028960;28;20442;-76
2021/11/06 03:25:09;;;;;;;14.40;7.17;;;6.70;1.00;;;;;;5030275;28;20918;-76
2021/11/06 03:27:35;;;;;;;19.73;7.13;;;;;;;;;;5024239;28;20829;-76
2021/11/06 03:30:04;;;;;;;25.53;7.63;;;6.50;1.00;;;;;;5032326;28;20412;-76
2021/11/06 03:32:31;;;;;;;18.03;7.00;;;;;;;;;;5023096;28;20779;-76
2021/11/06 03:34:57;;;;;;;14.63;6.67;;;;;;;;;;5032217;28;20422;-76
2021/11/06 03:37:26;;;;;;;46.43;10.43;;;;;;;;;;5033698;28;20455;-76
2021/11/06 03:40:03;;;;;;;18.03;7.50;;;;;;;;;;5034143;28;20426;-76
2021/11/06 03:42:30;;;;;;;15.37;6.73;;;;;;;;;;5032634;28;20475;-76
2021/11/06 03:44:56;;;;;;;36.27;8.83;;;;;;;;;;5026059;28;20415;-76
2021/11/06 03:47:27;;;;;;;27.10;8.67;;;;;;;;;;5030204;28;20523;-76
2021/11/06 03:49:53;;;;;;;11.93;6.53;;;;;;;;;;5026394;28;20806;-76
2021/11/06 03:52:19;;;;;;;15.47;6.50;;;;;;;;;;5032971;28;20427;-76
2021/11/06 03:54:50;;;;;;;15.83;6.83;;;;;;;;;;5023387;28;20845;-77
2021/11/06 03:57:16;;;;;;;21.27;9.10;;;;;;;;;;5040451;28;20423;-76
2021/11/06 03:59:44;;;;;;;23.93;8.03;;;;;;;;;;5031856;28;20399;-76
2021/11/06 04:02:14;;;;;;;27.17;7.43;;;;;;;;;;5029171;28;20481;-76
2021/11/06 04:04:41;;;;;;;15.73;6.97;;;;;;;;;;5034412;28;20419;-76
2021/11/06 04:07:08;;;;;;;15.53;6.60;;;;;;;;;;5033954;28;20419;-76
2021/11/06 04:09:44;;;;;;;14.13;6.67;;;;;;;;;;5032847;28;20881;-76
2021/11/06 04:12:14;;;;;;;13.53;6.47;;;;;;;;;;5034013;28;20437;-76
2021/11/06 04:14:40;;;;;;;14.43;6.83;;;;;;;;;;5030372;28;20752;-76
2021/11/06 04:17:08;;;;;;;21.80;7.47;;;;;;;;;;5047104;28;20861;-76
2021/11/06 04:19:38;;;;;;;13.30;5.70;;;;;;;;;;5033903;28;20894;-76
2021/11/06 04:22:04;;;;;;;16.23;7.23;;;;;;;;;;5033724;28;20771;-76
2021/11/06 04:24:31;;;;;;;15.97;5.97;;;;;;;;;;5026561;28;20437;-76
2021/11/06 04:26:57;;;;;;;14.53;6.10;;;;;;;;;;5033418;28;20431;-76
2021/11/06 04:29:26;;;;;;;20.30;7.83;;;;;;;;;;5033479;28;20509;-79
2021/11/06 04:31:53;;;;;;;12.53;6.17;;;;;;;;;;5038717;28;20431;-76
2021/11/06 04:34:20;;;;;;;12.30;6.80;;;;;;;;;;5021164;28;20412;-84
2021/11/06 04:36:46;;;;;;;17.00;6.60;;;;;;;;;;5013947;28;20479;-77
2021/11/06 04:39:13;;;;;;;18.73;8.37;;;;;;;;;;5033891;28;20448;-76
2021/11/06 04:41:50;;;;;;;21.97;7.83;;;;;;;;;;5033983;28;20503;-77
2021/11/06 04:44:17;;;;;;;23.43;7.27;;;;;;;;;;5045474;28;20409;-76
2021/11/06 04:46:44;;;;;;;14.43;7.17;;;;;;;;;;5028949;28;20485;-76
2021/11/06 04:49:14;;;;;;;18.90;8.27;;;;;;;;;;5029814;28;20427;-76
2021/11/06 04:51:44;;;;;;;24.20;7.87;;;;;;;;;;5021775;28;20423;-76
2021/11/06 04:54:11;;;;;;;15.20;7.40;;;;;;;;;;5042729;28;20511;-76
2021/11/06 04:56:37;;;;;;;13.83;6.47;;;;;;;;;;5024598;28;20472;-76
2021/11/06 04:59:03;;;;;;;24.70;7.40;;;;;;;;;;5037232;28;20500;-76
2021/11/06 05:01:30;;;;;;;24.75;9.50;;;;;;;;;;5045654;28;20472;-76
2021/11/06 05:03:56;;;;;;;30.97;8.13;;;;;;;;;;5034928;28;20183;-75
2021/11/06 05:06:23;;;;;;;25.73;7.93;;;;;;;;;;5036160;28;20498;-75
2021/11/06 05:08:49;;;;;;;31.37;7.53;;;;;;;;;;5027805;28;20415;-75
2021/11/06 05:11:21;;;;;;;19.90;7.20;;;;;;;;;;5023683;28;20940;-75
2021/11/06 05:13:50;;;;;;;14.03;5.80;;;;;;;;;;5030759;28;20521;-76
2021/11/06 05:16:21;;;;;;;17.67;6.37;;;;;;;;;;5037328;28;20804;-76
2021/11/06 05:18:47;;;;;;;23.00;6.47;;;;;;;;;;5037216;28;20762;-75
2021/11/06 05:21:14;;;;;;;12.40;6.30;;;;;;;;;;5036965;28;21001;-76
2021/11/06 05:23:41;;;;;;;15.30;6.20;;;;;;;;;;5050567;28;20428;-76
2021/11/06 05:26:08;;;;;;;16.40;6.77;;;;;;;;;;5038057;28;20422;-76
2021/11/06 05:28:35;;;;;;;62.60;8.53;;;;;;;;;;5026804;28;20450;-76
2021/11/06 05:31:01;;;;;;;18.93;6.40;;;;;;;;;;5037061;28;20422;-76
2021/11/06 05:33:39;;;;;;;25.90;7.63;;;;;;;;;;5031483;28;20887;-77
2021/11/06 05:36:05;;;;;;;14.43;6.17;;;;;;;;;;5017459;28;20404;-76
2021/11/06 05:38:32;;;;;;;20.70;6.97;;;;;;;;;;5043011;28;20429;-76
2021/11/06 05:40:58;;;;;;;21.13;7.30;;;;;;;;;;5023290;28;20483;-76
2021/11/06 05:43:24;;;;;;;15.80;6.97;;;;;;;;;;5024666;28;20909;-76
2021/11/06 05:45:51;;;;;;;17.40;8.37;;;;;;;;;;5035930;28;20414;-76
2021/11/06 05:48:17;;;;;;;24.27;8.23;;;;;;;;;;5029866;28;20431;-77
2021/11/06 05:50:43;;;;;;;23.33;9.70;;;;;;;;;;5022342;28;20199;-77
2021/11/06 05:53:09;;;;;;;18.07;6.90;;;;;;;;;;5027785;28;20681;-76
2021/11/06 05:55:35;;;;;;;13.10;6.63;;;;;;;;;;5046327;28;20414;-76
2021/11/06 05:58:01;;;;;;;18.30;8.03;;;;;;;;;;5023520;28;20414;-76
2021/11/06 06:00:27;;;;;;;15.07;6.40;;;;;;;;;;5035492;28;20450;-76
2021/11/06 06:02:53;;;;;;;15.40;7.03;;;;;;;;;;5035494;28;20897;-76
2021/11/06 06:05:19;;;;;;;16.55;7.85;;;;;;;;;;5035360;28;20181;-76
2021/11/06 06:07:45;;;;;;;15.93;6.90;;;;;;;;;;5032713;28;20203;-75
2021/11/06 06:10:13;;;;;;;12.83;6.30;;;5.20;1.00;;;;;;5018936;28;20494;-75
2021/11/06 06:12:40;;;;;;;13.83;6.80;;;;;;;;;;5028511;28;20431;-75
2021/11/06 06:15:06;;;;;;;22.73;7.95;;;;;;;;;;5035317;28;20774;-75
2021/11/06 06:17:32;;;;;;;12.13;6.83;;;;;;;;;;5027392;28;20264;-75
2021/11/06 06:19:58;;;;;;;16.60;8.27;;;;;;;;;;5030047;28;20431;-76
2021/11/06 06:22:25;;;;;;;26.63;9.32;;;;;;;;;;5034987;28;20485;-75
2021/11/06 06:24:51;;;;;;;18.47;7.60;;;5.50;1.00;;;;;;5028548;28;20606;-76
2021/11/06 06:27:17;;;;;;;22.03;7.80;;;;;;;;;;5033839;28;20453;-76
2021/11/06 06:29:44;;;;;;;16.00;7.00;;;;;;;;;;5026322;28;20910;-76
2021/11/06 06:32:10;;;;;;;25.40;8.53;;;;;;;;;;5026364;28;20436;-76
2021/11/06 06:34:36;;;;;;;30.43;8.40;;;;;;;;;;5026191;28;20567;-76
2021/11/06 06:37:02;;;;;;;24.07;8.03;;;;;;;;;;5034239;28;20807;-76
2021/11/06 06:39:28;;;;;;;26.23;8.87;;;;;;;;;;5022654;28;20424;-76
2021/11/06 06:41:54;;;;;;;22.13;8.70;;;;;;;;;;5025638;28;20464;-79
2021/11/06 06:44:20;;;;;;;22.40;8.30;;;;;;;;;;5030265;28;20889;-76
2021/11/06 06:46:46;;;;;;;17.97;7.73;;;;;;;;;;5033602;28;20447;-76
2021/11/06 06:49:12;;;;;;;21.73;8.30;;;;;;;;;;5018495;28;20435;-76
2021/11/06 06:51:38;;;;;;;28.43;8.27;;;;;;;;;;5025205;28;20411;-76
2021/11/06 06:54:04;;;;;;;28.03;8.67;;;;;;;;;;5029667;28;20421;-76
2021/11/06 06:56:31;;;;;;;25.40;8.67;;;;;;;;;;5038456;28;20946;-76
2021/11/06 06:58:57;;;;;;;15.73;7.33;;;;;;;;;;5029898;28;20407;-76
2021/11/06 07:01:23;;;;;;;24.37;9.30;;;;;;;;;;5034512;28;20493;-76
2021/11/06 07:03:49;;;;;;;22.33;8.83;;;;;;;;;;5034265;28;20414;-76
2021/11/06 07:06:15;;;;;;;22.63;8.50;;;;;;;;;;5034446;28;20767;-77
2021/11/06 07:08:41;;;;;;;22.17;8.73;;;;;;;;;;5025491;28;20520;-76
2021/11/06 07:11:07;;;;;;;24.77;8.53;;;;;;;;;;5033977;28;20419;-76
2021/11/06 07:13:35;;;;;;;17.30;8.10;;;;;;;;;;5024484;28;20423;-76
2021/11/06 07:16:02;;;;;;;18.50;8.67;;;;;;;;;;5034344;28;20461;-75
2021/11/06 07:18:28;;;;;;;19.97;9.00;;;;;;;;;;5032315;28;20422;-76
2021/11/06 07:20:54;;;;;;;21.03;9.00;;;;;;;;;;5021715;28;20463;-77
2021/11/06 07:23:20;;;;;;;19.40;8.17;;;;;;;;;;5033913;28;20411;-77
2021/11/06 07:25:46;;;;;;;15.80;9.13;;;;;;;;;;5034038;28;20414;-78
2021/11/06 07:28:12;;;;;;;23.27;9.97;;;;;;;;;;5031952;28;20905;-77
2021/11/06 07:30:38;;;;;;;17.60;8.53;;;;;;;;;;5012845;28;20424;-77
2021/11/06 07:33:04;;;;;;;29.70;10.10;;;;;;;;;;5014044;28;20424;-77
2021/11/06 07:35:30;;;;;;;22.27;9.37;;;;;;;;;;5023194;28;20435;-77
2021/11/06 07:37:57;;;;;;;27.97;10.17;;;;;;;;;;5033462;28;20447;-77
2021/11/06 07:40:23;;;;;;;32.77;10.13;;;;;;;;;;5033702;28;20493;-77
2021/11/06 07:42:49;;;;;;;20.47;9.17;;;;;;;;;;5021885;28;21071;-76
2021/11/06 07:45:17;;;;;;;23.50;9.60;;;7.80;1.00;;;;;;5033657;28;20415;-79
2021/11/06 07:47:43;;;;;;;24.30;10.00;;;;;;;;;;5032110;28;20528;-78
2021/11/06 07:50:10;;;;;;;29.67;9.93;;;;;;;;;;5020868;28;20832;-78
2021/11/06 07:52:36;;;;;;;17.73;9.20;;;;;;;;;;5029318;28;20415;-78
2021/11/06 07:55:02;;;;;;;21.13;9.40;;;;;;;;;;5039375;28;20476;-78
2021/11/06 07:57:28;;;;;;;31.67;9.03;;;;;;;;;;5026154;28;20442;-78
2021/11/06 07:59:54;;;;;;;16.07;8.37;;;;;;;;;;5033644;28;20423;-78
2021/11/06 08:02:20;;;;;;;27.20;9.50;;;;;;;;;;5031557;28;20478;-77
2021/11/06 08:04:46;;;;;;;27.80;9.60;;;;;;;;;;5027681;28;20439;-77
2021/11/06 08:07:12;;;;;;;14.53;8.67;;;;;;;;;;5022033;28;20410;-77
2021/11/06 08:09:38;;;;;;;46.27;10.20;;;;;;;;;;5024932;28;20821;-77
2021/11/06 08:12:04;;;;;;;24.73;9.50;;;;;;;;;;5032075;28;20506;-77
2021/11/06 08:14:30;;;;;;;26.07;9.00;;;;;;;;;;5033371;28;20415;-77
2021/11/06 08:16:57;;;;;;;27.73;9.43;;;;;;;;;;5033063;28;20427;-77
2021/11/06 08:19:23;;;;;;;55.27;10.10;;;;;;;;;;5033112;28;20415;-77
2021/11/06 08:21:50;;;;;;;27.10;9.47;;;;;;;;;;5028761;28;20465;-77
2021/11/06 08:24:17;;;;;;;22.27;9.10;;;;;;;;;;5028940;28;20506;-77
2021/11/06 08:26:42;;;;;;;15.50;8.03;;;;;;;;;;5031671;28;20415;-77
2021/11/06 08:29:08;;;;;;;23.83;8.20;;;;;;;;;;5033185;28;20473;-77
2021/11/06 08:31:34;;;;;;;20.90;7.80;;;;;;;;;;5032740;28;20921;-77
2021/11/06 08:34:00;;;;;;;65.60;7.70;;;;;;;;;;5032821;28;20419;-77
2021/11/06 08:36:26;;;;;;;18.20;8.57;;;;;;;;;;5032843;28;20905;-77
2021/11/06 08:38:52;;;;;;;18.40;7.93;;;;;;;;;;5032608;28;20426;-75
2021/11/06 08:41:18;;;;;;;23.10;9.40;;;;;;;;;;5032600;28;20478;-77
2021/11/06 08:43:46;;;;;;;17.97;7.90;;;;;;;;;;5032587;28;20451;-77
2021/11/06 08:46:12;;;;;;;13.80;7.70;;;;;;;;;;5032736;28;20422;-77
2021/11/06 08:48:38;;;;;;;23.90;8.60;;;;;;;;;;5030717;28;20423;-77
2021/11/06 08:51:04;;;;;;;20.37;9.70;;;;;;;;;;5032536;28;20411;-77
2021/11/06 08:53:31;;;;;;;19.23;8.20;;;;;;;;;;5032499;28;20418;-77
2021/11/06 08:55:57;;;;;;;29.70;8.87;;;;;;;;;;5036157;28;20417;-77
2021/11/06 08:58:23;;;;;;;14.37;7.73;;;;;;;;;;5028391;28;20463;-77
2021/11/06 09:00:50;;;;;;;22.73;9.40;;;;;;;;;;5032800;28;20459;-77
2021/11/06 09:03:21;;;;;;;16.70;8.77;;;8.50;1.00;;;;;;5032605;28;20961;-78
2021/11/06 09:05:52;;;;;;;22.13;9.97;;;;;;;;;;5033152;28;20411;-78
2021/11/06 09:08:28;;;;;;;21.63;9.80;;;8.80;1.00;;;;;;5032620;28;20545;-78
2021/11/06 09:10:55;;;;;;;19.43;9.80;;;;;;;;;;5032521;28;20778;-77
2021/11/06 09:13:26;;;;;;;26.57;9.17;;;;;;;;;;5032507;28;20414;-77
2021/11/06 09:15:53;;;;;;;15.00;7.80;;;;;;;;;;5032668;28;20449;-78
2021/11/06 09:18:19;;;;;;;30.07;11.30;;;;;;;;;;5032605;28;20805;-78
2021/11/06 09:20:45;;;;;;;23.63;8.47;;;;;;;;;;5027314;28;20459;-78
2021/11/06 09:23:11;;;;;;;22.97;9.53;;;;;;;;;;5032366;28;20411;-78
2021/11/06 09:25:37;;;;;;;17.07;9.23;;;;;;;;;;5032162;28;20472;-78
2021/11/06 09:28:04;;;;;;;21.57;9.67;;;;;;;;;;5032422;28;20411;-78
2021/11/06 09:30:30;;;;;;;19.93;8.60;;;;;;;;;;5032979;28;20418;-77
2021/11/06 09:32:56;;;;;;;19.57;9.30;;;;;;;;;;5013210;28;20614;-77
2021/11/06 09:35:22;;;;;;;20.53;9.40;;;;;;;;;;5022239;28;20403;-77
2021/11/06 09:37:48;;;;;;;22.80;10.03;;;;;;;;;;5031948;28;20497;-77
2021/11/06 09:40:15;;;;;;;18.77;8.80;;;;;;;;;;5032321;28;20517;-77
2021/11/06 09:42:42;;;;;;;24.53;9.80;;;;;;;;;;5031725;28;20431;-77
2021/11/06 09:45:09;;;;;;;30.50;9.50;;;9.40;1.00;;;;;;5035614;28;20417;-77
2021/11/06 09:47:36;;;;;;;33.73;10.17;;;;;;;;;;5033221;28;20850;-77
2021/11/06 09:50:04;;;;;;;16.93;8.87;;;9.60;1.00;;;;;;5030589;28;20895;-77
2021/11/06 09:52:30;;;;;;;19.50;8.70;;;;;;;;;;5024725;28;20454;-77
2021/11/06 09:54:56;;;;;;;20.80;7.70;;;;;;;;;;5039223;28;20739;-77
2021/11/06 09:57:22;;;;;;;17.73;7.17;;;;;;;;;;5032497;28;20460;-77
2021/11/06 09:59:48;;;;;;;21.73;7.73;;;;;;;;;;5033536;28;20413;-76
2021/11/06 10:02:14;;;;;;;18.60;8.13;;;;;;;;;;5016117;28;20505;-77
2021/11/06 10:04:40;;;;;;;17.90;7.77;;;;;;;;;;5031509;28;20414;-77
2021/11/06 10:07:20;;;;;;;17.67;8.23;;;9.40;1.00;;;;;;5035451;28;20414;-77
2021/11/06 10:10:01;;;;;;;17.07;8.17;;;;;;;;;;5035472;28;20918;-77
2021/11/06 10:12:42;;;;;;;17.23;8.30;;;;;;;;;;5034117;28;20431;-77
2021/11/06 10:15:08;;;;;;;19.53;7.30;;;;;;;;;;5035809;28;20407;-77
2021/11/06 10:17:35;;;;;;;23.70;8.40;;;;;;;;;;5033511;28;20506;-78
2021/11/06 10:20:20;;;;;;;18.20;8.60;;;;;;;;;;5035401;28;20414;-78
2021/11/06 10:22:46;;;;;;;18.93;8.17;;;;;;;;;;5032154;28;20513;-77
2021/11/06 10:25:14;;;;;;;17.57;8.30;;;;;;;;;;5033435;28;20418;-78
2021/11/06 10:27:42;;;;;;;17.93;8.70;;;;;;;;;;5031725;28;20678;-77
2021/11/06 10:30:14;;;;;;;15.30;8.13;;;;;;;;;;5033917;28;20422;-76
2021/11/06 10:32:42;;;;;;;16.50;7.73;;;9.90;1.00;;;;;;5034974;28;20422;-77
2021/11/06 10:35:12;;;;;;;16.57;8.17;;;;;;;;;;5035177;28;20772;-77
2021/11/06 10:37:39;;;;;;;16.47;8.40;;;;;;;;;;5034621;28;20741;-77
2021/11/06 10:40:09;;;;;;;18.03;7.87;;;;;;;;;;5035044;28;20475;-77
2021/11/06 10:42:35;;;;;;;13.23;7.60;;;;;;;;;;5034499;28;20553;-77
2021/11/06 10:45:09;;;;;;;27.30;9.77;;;;;;;;;;5022370;28;20451;-77
2021/11/06 10:47:53;;;;;;;34.93;10.10;;;10.10;1.00;;;;;;5033946;28;20476;-77
2021/11/06 10:50:37;;;;;;;23.43;8.90;;;;;;;;;;5016416;28;20415;-77
2021/11/06 10:53:04;;;;;;;30.27;9.00;;;;;;;;;;5033852;28;20894;-75
2021/11/06 10:55:34;;;;;;;18.20;8.70;;;10.10;1.00;;;;;;5026513;28;20910;-77
2021/11/06 10:58:17;;;;;;;18.43;8.10;;;10.20;1.00;;;;;;5028682;28;20423;-76
2021/11/06 11:00:55;;;;;;;17.57;9.37;;;10.30;1.00;;;;;;5034897;28;20437;-78
2021/11/06 11:03:30;;;;;;;22.33;8.50;;;10.20;1.00;;;;;;5026600;28;20429;-78
2021/11/06 11:05:57;;;;;;;21.40;8.67;;;10.20;1.00;;;;;;5015557;28;20894;-78
2021/11/06 11:08:23;;;;;;;16.90;8.23;;;;;;;;;;5033504;28;20419;-78
2021/11/06 11:10:50;;;;;;;19.17;8.97;;;;;;;;;;5028701;28;20414;-78
2021/11/06 11:13:17;;;;;;;14.57;7.80;;;;;;;;;;5034252;28;20415;-78
2021/11/06 11:15:49;;;;;;;17.40;8.83;;;10.40;1.00;;;;;;5034704;28;20422;-79
2021/11/06 11:18:51;;;;;;;15.13;8.27;;;10.50;1.00;;;;;;5032756;28;20423;-78
2021/11/06 11:21:19;;;;;;;20.67;8.50;;;10.60;1.00;;;;;;4988245;28;20464;-78
2021/11/06 11:23:49;;;;;;;17.77;8.23;;;10.60;1.00;;;;;;4984224;28;20503;-77
2021/11/06 11:26:17;;;;;;;21.07;8.93;;;10.60;1.00;;;;;;4992334;28;20431;-77
2021/11/06 11:28:44;;;;;;;15.57;7.77;;;;;;;;;;4992457;28;20433;-77
2021/11/06 11:31:10;;;;;;;22.60;9.07;;;;;;;;;;4976595;28;20435;-76
2021/11/06 11:33:37;;;;;;;14.23;8.47;;;;;;;;;;4972883;28;20428;-76
2021/11/06 11:36:07;;;;;;;15.23;8.13;;;;;;;;;;4972740;28;20523;-77
2021/11/06 11:38:35;;;;;;;24.63;9.33;;;10.60;1.00;;;;;;4972465;28;20421;-77
2021/11/06 11:41:19;;;;;;;16.60;8.13;;;;;;;;;;4978527;28;20519;-77
2021/11/06 11:43:49;;;;;;;21.23;9.07;;;;;;;;;;4991611;28;20519;-77
2021/11/06 11:46:20;;;;;;;16.67;9.27;;;10.60;1.00;;;;;;4992469;28;20492;-76
2021/11/06 11:48:53;;;;;;;23.40;10.10;;;;;;;;;;4968238;28;20429;-76
2021/11/06 11:51:28;;;;;;;21.73;9.60;;;;;;;;;;4991965;28;20448;-76
2021/11/06 11:54:05;;;;;;;24.57;9.53;;;;;;;;;;4991833;28;20463;-76
2021/11/06 11:56:31;;;;;;;18.53;8.77;;;;;;;;;;5034593;28;20419;-76
2021/11/06 11:58:58;;;;;;;18.90;8.63;;;;;;;;;;5033564;28;20407;-76
2021/11/06 12:01:25;;;;;;;21.20;8.93;;;10.40;1.00;;;;;;5033388;28;20466;-77
2021/11/06 12:03:53;;;;;;;21.90;10.03;;;10.40;1.00;;;;;;5024615;28;20417;-78
2021/11/06 12:06:37;;;;;;;36.83;10.93;;;10.40;1.00;;;;;;5021149;28;20430;-78
2021/11/06 12:09:03;;;;;;;18.90;8.33;;;;;;;;;;5032782;28;20458;-77
2021/11/06 12:11:34;;;;;;;27.50;9.83;;;10.60;1.00;;;;;;5021989;28;20450;-82
2021/11/06 12:14:14;;;;;;;21.53;10.20;;;10.60;1.00;;;;;;5034011;28;20442;-77
2021/11/06 12:16:45;;;;;;;21.23;9.80;;;10.60;1.00;;;;;;5039786;28;20508;-81
2021/11/06 12:19:49;;;;;;;26.63;10.13;;;10.80;1.00;;;;;;5037678;28;20937;-81
2021/11/06 12:22:32;;;;;;;26.80;10.77;;;10.80;1.00;;;;;;4960234;28;21000;-77
2021/11/06 12:25:22;;;;;;;21.27;9.30;;;10.60;1.00;;;;;;4972838;28;21031;-78
2021/11/06 12:27:59;;;;;;;21.73;8.23;;;;;;;;;;4970134;28;20430;-79
2021/11/06 12:30:32;;;;;;;13.10;7.07;;;10.60;1.00;;;;;;4960728;28;20418;-76
2021/11/06 12:33:40;;;;;;;18.40;9.87;;;10.50;1.00;;;;;;4953791;29;20406;-77
2021/11/06 12:36:17;;;;;;;18.03;8.57;;;10.30;1.00;;;;;;4972624;28;20452;-79
2021/11/06 12:38:45;;;;;;;30.53;11.87;;;;;;;;;;4972601;28;20417;-77
2021/11/06 12:41:11;;;;;;;20.50;9.83;;;10.10;1.00;;;;;;4972547;28;20489;-77
2021/11/06 12:44:05;;;;;;;21.70;9.40;;;;;;;;;;4956560;28;20439;-77
2021/11/06 12:46:34;;;;;;;23.37;10.47;;;10.30;1.00;;;;;;4973088;28;20438;-77
2021/11/06 12:49:05;;;;;;;25.17;10.53;;;10.30;1.00;;;;;;4971647;28;20437;-77
2021/11/06 12:51:35;;;;;;;25.10;10.80;;;;;;;;;;4971276;28;20452;-77
2021/11/06 12:54:15;;;;;;;24.27;10.67;;;;;;;;;;4972410;28;20425;-77
2021/11/06 12:56:51;;;;;;;17.10;9.77;;;10.40;1.00;;;;;;4968618;28;20500;-77
2021/11/06 12:59:19;;;;;;;33.27;11.70;;;;;;;;;;5014800;28;20906;-77
2021/11/06 13:02:05;;;;;;;22.33;9.00;;;;;;;;;;5033428;28;20487;-76
2021/11/06 13:04:35;;;;;;;23.93;10.43;;;;;;;;;;5032930;28;20422;-76
2021/11/06 13:07:02;;;;;;;21.73;9.90;;;;;;;;;;5027358;28;20491;-77
2021/11/06 13:09:35;;;;;;;39.93;11.67;;;10.60;1.00;;;;;;5043261;28;20410;-77
2021/11/06 13:12:12;;;;;;;22.93;10.77;;;10.60;1.00;;;;;;5036544;28;20748;-77
2021/11/06 13:14:47;;;;;;;20.67;9.33;;;;;;;;;;5035803;28;20811;-79
2021/11/06 13:17:21;;;;;;;27.70;10.80;;;;;;;;;;5033538;28;20414;-77
2021/11/06 13:19:55;;;;;;;19.30;9.63;;;;;;;;;;5037242;28;20430;-76
2021/11/06 13:22:25;;;;;;;23.77;10.67;;;;;;;;;;5037189;28;20921;-77
2021/11/06 13:25:28;;;;;;;22.53;9.60;;;10.60;1.00;;;;;;5036048;28;20427;-76
2021/11/06 13:28:27;;;;;;;24.83;9.93;;;;;;;;;;5026060;28;20422;-78
2021/11/06 13:31:04;;;;;;;25.57;10.60;;;10.40;1.00;;;;;;5036984;28;20400;-77
2021/11/06 13:33:33;;;;;;;26.60;10.43;;;;;;;;;;5038642;28;20464;-76
2021/11/06 13:36:05;;;;;;;23.33;10.27;;;10.40;1.00;;;;;;5049543;28;20454;-75
2021/11/06 13:38:34;;;;;;;24.27;10.27;;;10.40;1.00;;;;;;5035419;28;20415;-75
2021/11/06 13:41:00;;;;;;;27.87;11.20;;;;;;;;;;5034130;28;20466;-75
2021/11/06 13:43:43;;;;;;;22.90;10.20;;;10.50;1.00;;;;;;5033769;28;20914;-76
2021/11/06 13:46:15;;;;;;;26.27;11.13;;;;;;;;;;5052743;28;20419;-75
2021/11/06 13:48:51;;;;;;;26.50;10.30;;;10.70;1.00;;;;;;5033520;28;20525;-77
2021/11/06 13:54:47;;;;;;;20.47;9.27;;;10.70;1.00;;;;;;5050687;28;20471;-76
2021/11/06 13:57:22;;;;;;;20.30;8.97;;;;;;;;;;5025362;28;20414;-77
2021/11/06 14:00:03;;;;;;;21.20;9.73;;;;;;;;;;5041079;28;20421;-77
2021/11/06 14:02:50;;;;;;;21.13;9.00;;;;;;;;;;5024961;28;20458;-76
2021/11/06 14:05:18;;;;;;;22.13;8.70;;;10.90;1.00;;;;;;5027406;28;20411;-76
2021/11/06 14:07:50;;;;;;;29.33;10.70;;;11.00;1.00;;;;;;5044988;28;20821;-76
2021/11/06 14:10:28;;;;;;;50.70;11.80;;;11.10;1.00;;;;;;5035785;28;20909;-76
2021/11/06 14:12:55;;;;;;;22.20;9.37;;;11.10;1.00;;;;;;5035263;28;20463;-77
2021/11/06 14:15:38;;;;;;;37.00;11.20;;;11.10;1.00;;;;;;5034121;28;20435;-76
2021/11/06 14:18:22;;;;;;;40.47;11.70;;;11.00;1.00;;;;;;5040555;28;20462;-79
2021/11/06 14:20:53;;;;;;;42.50;12.40;;;10.90;1.00;;;;;;5033617;28;20458;-76
2021/11/06 14:23:34;;;;;;;39.23;12.93;;;10.90;1.00;;;;;;5026993;28;20811;-75